createdAt,value
2018-06-12T00:14:32.316Z,100.00
2018-06-12T00:35:14.723Z,100.00
2018-06-12T00:55:52.688Z,100.00
2018-06-12T01:16:35.026Z,100.00
2018-06-12T01:37:14.535Z,100.00
2018-06-12T01:57:53.809Z,100.00
2018-06-12T02:18:35.593Z,100.00
2018-06-12T02:39:21.447Z,100.00
2018-06-12T02:59:58.732Z,100.00
2018-06-12T03:20:51.818Z,100.00
2018-06-12T03:41:31.086Z,100.00
2018-06-12T04:02:06.365Z,100.00
2018-06-12T04:22:48.699Z,100.00
2018-06-12T04:43:28.886Z,100.00
2018-06-12T05:04:08.154Z,100.00
2018-06-12T05:24:47.420Z,100.00
2018-06-12T05:45:24.838Z,100.00
2018-06-12T06:06:05.949Z,100.00
2018-06-12T06:26:45.218Z,100.00
2018-06-12T06:47:13.423Z,100.00
2018-06-12T07:07:51.765Z,100.00
2018-06-12T07:28:31.950Z,100.00
2018-06-12T07:49:03.416Z,100.00
2018-06-12T08:09:46.491Z,100.00
2018-06-12T08:30:25.899Z,100.00
2018-06-12T08:51:03.184Z,100.00
2018-06-12T09:11:37.232Z,100.00
2018-06-12T09:32:17.418Z,100.00
2018-06-12T09:52:54.531Z,100.00
2018-06-12T10:13:31.952Z,100.00
2018-06-12T10:34:17.365Z,99.04
2018-06-12T10:55:03.694Z,98.87
2018-06-12T11:15:29.751Z,94.87
2018-06-12T11:36:10.865Z,95.54
2018-06-12T11:56:50.706Z,93.99
2018-06-12T12:17:21.413Z,96.15
2018-06-12T12:38:02.090Z,95.81
2018-06-12T12:58:35.299Z,96.50
2018-06-12T13:19:13.367Z,97.17
2018-06-12T13:39:53.554Z,100.00
2018-06-12T14:00:19.613Z,99.19
2018-06-12T14:20:57.956Z,93.45
2018-06-12T14:41:17.870Z,93.17
2018-06-12T15:01:55.293Z,89.70
2018-06-12T15:22:21.347Z,87.89
2018-06-12T15:42:52.629Z,89.06
2018-06-12T16:03:30.061Z,90.91
2018-06-12T16:24:08.086Z,88.69
2018-06-12T16:44:32.302Z,89.45
2018-06-12T17:05:11.801Z,89.61
2018-06-12T17:25:51.757Z,88.01
2018-06-12T17:46:20.880Z,86.21
2018-06-12T18:06:50.009Z,88.81
2018-06-12T18:27:25.649Z,91.18
2018-06-12T18:47:58.713Z,89.98
2018-06-12T19:08:31.198Z,89.27
2018-06-12T19:29:14.383Z,92.12
2018-06-12T19:49:50.369Z,93.01
2018-06-12T20:10:21.645Z,93.13
2018-06-12T20:30:53.997Z,91.99
2018-06-12T20:51:30.044Z,88.87
2018-06-12T21:12:13.305Z,88.60
2018-06-12T21:32:55.638Z,88.72
2018-06-12T21:53:35.837Z,85.58
2018-06-12T22:14:13.868Z,87.61
2018-06-12T22:34:50.368Z,90.30
2018-06-12T22:55:32.715Z,89.88
2018-06-12T23:16:04.905Z,90.47
2018-06-12T23:36:44.174Z,91.71
2018-06-12T23:57:22.521Z,92.75
